Kampen, Netherlands
Current Conditions -  °F | °C
As of 5:25 PM on Wednesday 26 Nov 2014 (Local Time) from EHDL Reporting Station
Overcast Overcast  
Wind Chill:   Ceiling: 7500
Heat Index:   Visibility: 6mi
Dew Point:   Wind: 12mph
Humidity: 81%   Direction: 110°ESE
Pressure: 29.88"   Gusts: NA
Location:  52.56°N, 5.91°E
Report Text: EHDL 261625Z AUTO 11010KT 9999 OVC075 05/02 Q1012 BLU
Loading
Personal Weather Stations






























Interactive Weather Map New forecast layout! Learn more

10-Day Weather Forecast

Advertisements
Track Severe Weather on mobile